sensor_id;sensor_type;location;lat;lon;timestamp;temperature;humidity
39777;DHT22;25453;48.162;14.510;2023-07-13T00:01:56;22.50;78.30
39777;DHT22;25453;48.162;14.510;2023-07-13T00:04:24;22.50;78.50
39777;DHT22;25453;48.162;14.510;2023-07-13T00:06:57;22.50;78.50
39777;DHT22;25453;48.162;14.510;2023-07-13T00:09:24;22.50;78.50
39777;DHT22;25453;48.162;14.510;2023-07-13T00:11:55;22.50;78.50
39777;DHT22;25453;48.162;14.510;2023-07-13T00:14:23;22.50;78.40
39777;DHT22;25453;48.162;14.510;2023-07-13T00:16:51;22.50;78.40
39777;DHT22;25453;48.162;14.510;2023-07-13T00:19:19;22.50;78.20
39777;DHT22;25453;48.162;14.510;2023-07-13T00:21:46;22.50;78.20
39777;DHT22;25453;48.162;14.510;2023-07-13T00:24:16;22.60;78.10
39777;DHT22;25453;48.162;14.510;2023-07-13T00:26:49;22.60;78.00
39777;DHT22;25453;48.162;14.510;2023-07-13T00:29:16;22.60;77.90
39777;DHT22;25453;48.162;14.510;2023-07-13T00:31:43;22.60;77.80
39777;DHT22;25453;48.162;14.510;2023-07-13T00:34:11;22.60;77.80
39777;DHT22;25453;48.162;14.510;2023-07-13T00:36:39;22.60;78.00
39777;DHT22;25453;48.162;14.510;2023-07-13T00:39:06;22.60;77.90
39777;DHT22;25453;48.162;14.510;2023-07-13T00:41:33;22.60;77.90
39777;DHT22;25453;48.162;14.510;2023-07-13T00:44:01;22.60;77.90
39777;DHT22;25453;48.162;14.510;2023-07-13T00:46:31;22.60;77.80
39777;DHT22;25453;48.162;14.510;2023-07-13T00:49:03;22.60;77.80
39777;DHT22;25453;48.162;14.510;2023-07-13T00:51:44;22.70;77.80
39777;DHT22;25453;48.162;14.510;2023-07-13T00:54:17;22.70;77.60
39777;DHT22;25453;48.162;14.510;2023-07-13T00:56:47;22.70;77.40
39777;DHT22;25453;48.162;14.510;2023-07-13T00:59:16;22.60;77.40
39777;DHT22;25453;48.162;14.510;2023-07-13T01:01:46;22.60;77.30
39777;DHT22;25453;48.162;14.510;2023-07-13T01:04:13;22.60;77.20
39777;DHT22;25453;48.162;14.510;2023-07-13T01:06:41;22.60;77.10
39777;DHT22;25453;48.162;14.510;2023-07-13T01:09:11;22.50;77.20
39777;DHT22;25453;48.162;14.510;2023-07-13T01:11:41;22.50;77.30
39777;DHT22;25453;48.162;14.510;2023-07-13T01:14:09;22.50;77.50
39777;DHT22;25453;48.162;14.510;2023-07-13T01:16:37;22.50;77.30
39777;DHT22;25453;48.162;14.510;2023-07-13T01:22:12;22.60;77.40
39777;DHT22;25453;48.162;14.510;2023-07-13T01:24:42;22.60;77.40
39777;DHT22;25453;48.162;14.510;2023-07-13T01:27:12;22.60;77.40
39777;DHT22;25453;48.162;14.510;2023-07-13T01:29:41;22.60;77.40
39777;DHT22;25453;48.162;14.510;2023-07-13T01:32:21;22.60;77.50
39777;DHT22;25453;48.162;14.510;2023-07-13T01:34:52;22.60;77.40
39777;DHT22;25453;48.162;14.510;2023-07-13T01:37:24;22.60;77.40
39777;DHT22;25453;48.162;14.510;2023-07-13T01:39:52;22.60;77.30
39777;DHT22;25453;48.162;14.510;2023-07-13T01:42:19;22.60;77.30
39777;DHT22;25453;48.162;14.510;2023-07-13T01:44:46;22.60;77.30
39777;DHT22;25453;48.162;14.510;2023-07-13T01:47:13;22.50;77.40
39777;DHT22;25453;48.162;14.510;2023-07-13T01:49:40;22.60;77.60
39777;DHT22;25453;48.162;14.510;2023-07-13T01:52:08;22.60;77.70
39777;DHT22;25453;48.162;14.510;2023-07-13T01:54:35;22.60;77.90
39777;DHT22;25453;48.162;14.510;2023-07-13T01:57:02;22.70;77.90
39777;DHT22;25453;48.162;14.510;2023-07-13T01:59:30;22.70;78.00
39777;DHT22;25453;48.162;14.510;2023-07-13T02:01:57;22.70;78.00
39777;DHT22;25453;48.162;14.510;2023-07-13T02:04:24;22.70;78.10
39777;DHT22;25453;48.162;14.510;2023-07-13T02:06:52;22.70;78.00
39777;DHT22;25453;48.162;14.510;2023-07-13T02:09:19;22.80;78.10
39777;DHT22;25453;48.162;14.510;2023-07-13T02:11:46;22.70;78.10
39777;DHT22;25453;48.162;14.510;2023-07-13T02:14:13;22.70;77.90
39777;DHT22;25453;48.162;14.510;2023-07-13T02:16:42;22.70;77.70
39777;DHT22;25453;48.162;14.510;2023-07-13T02:19:09;22.60;77.80
39777;DHT22;25453;48.162;14.510;2023-07-13T02:21:36;22.50;78.10
39777;DHT22;25453;48.162;14.510;2023-07-13T02:24:04;22.50;78.20
39777;DHT22;25453;48.162;14.510;2023-07-13T02:26:31;22.50;78.20
39777;DHT22;25453;48.162;14.510;2023-07-13T02:28:58;22.40;78.00
39777;DHT22;25453;48.162;14.510;2023-07-13T02:31:25;22.30;78.20
39777;DHT22;25453;48.162;14.510;2023-07-13T02:33:52;22.30;78.40
39777;DHT22;25453;48.162;14.510;2023-07-13T02:36:19;22.30;78.50
39777;DHT22;25453;48.162;14.510;2023-07-13T02:38:49;22.30;78.50
39777;DHT22;25453;48.162;14.510;2023-07-13T02:41:17;22.30;78.60
39777;DHT22;25453;48.162;14.510;2023-07-13T02:43:44;22.30;78.60
39777;DHT22;25453;48.162;14.510;2023-07-13T02:46:11;22.30;78.70
39777;DHT22;25453;48.162;14.510;2023-07-13T02:48:39;22.30;78.70
39777;DHT22;25453;48.162;14.510;2023-07-13T02:51:07;22.30;78.80
39777;DHT22;25453;48.162;14.510;2023-07-13T02:53:35;22.30;78.90
39777;DHT22;25453;48.162;14.510;2023-07-13T02:56:04;22.30;79.00
39777;DHT22;25453;48.162;14.510;2023-07-13T02:58:31;22.40;79.00
39777;DHT22;25453;48.162;14.510;2023-07-13T03:00:59;22.40;78.90
39777;DHT22;25453;48.162;14.510;2023-07-13T03:03:32;22.40;78.70
39777;DHT22;25453;48.162;14.510;2023-07-13T03:06:02;22.40;78.70
39777;DHT22;25453;48.162;14.510;2023-07-13T03:08:31;22.40;78.80
39777;DHT22;25453;48.162;14.510;2023-07-13T03:11:25;22.30;78.80
39777;DHT22;25453;48.162;14.510;2023-07-13T03:13:51;22.40;79.00
39777;DHT22;25453;48.162;14.510;2023-07-13T03:16:18;22.40;79.00
39777;DHT22;25453;48.162;14.510;2023-07-13T03:18:47;22.40;78.90
39777;DHT22;25453;48.162;14.510;2023-07-13T03:21:14;22.40;78.80
39777;DHT22;25453;48.162;14.510;2023-07-13T03:23:41;22.40;78.70
39777;DHT22;25453;48.162;14.510;2023-07-13T03:26:12;22.40;78.80
39777;DHT22;25453;48.162;14.510;2023-07-13T03:28:40;22.40;78.80
39777;DHT22;25453;48.162;14.510;2023-07-13T03:31:13;22.50;78.80
39777;DHT22;25453;48.162;14.510;2023-07-13T03:33:42;22.40;78.70
39777;DHT22;25453;48.162;14.510;2023-07-13T03:36:15;22.40;78.60
39777;DHT22;25453;48.162;14.510;2023-07-13T03:38:50;22.40;78.50
39777;DHT22;25453;48.162;14.510;2023-07-13T03:41:18;22.40;78.60
39777;DHT22;25453;48.162;14.510;2023-07-13T03:43:46;22.40;78.70
39777;DHT22;25453;48.162;14.510;2023-07-13T03:46:15;22.40;78.80
39777;DHT22;25453;48.162;14.510;2023-07-13T03:48:45;22.40;78.80
39777;DHT22;25453;48.162;14.510;2023-07-13T03:51:14;22.40;78.70
39777;DHT22;25453;48.162;14.510;2023-07-13T03:53:44;22.40;78.70
39777;DHT22;25453;48.162;14.510;2023-07-13T03:56:12;22.40;78.90
39777;DHT22;25453;48.162;14.510;2023-07-13T03:58:44;22.40;79.00
39777;DHT22;25453;48.162;14.510;2023-07-13T04:01:13;22.40;79.00
39777;DHT22;25453;48.162;14.510;2023-07-13T04:03:41;22.40;78.80
39777;DHT22;25453;48.162;14.510;2023-07-13T04:06:20;22.40;78.70
39777;DHT22;25453;48.162;14.510;2023-07-13T04:08:50;22.40;78.80
39777;DHT22;25453;48.162;14.510;2023-07-13T04:11:23;22.40;78.80
39777;DHT22;25453;48.162;14.510;2023-07-13T04:13:50;22.30;78.90
39777;DHT22;25453;48.162;14.510;2023-07-13T04:16:19;22.30;78.90
39777;DHT22;25453;48.162;14.510;2023-07-13T04:18:47;22.30;79.00
39777;DHT22;25453;48.162;14.510;2023-07-13T04:21:16;22.30;79.00
39777;DHT22;25453;48.162;14.510;2023-07-13T04:23:43;22.30;79.00
39777;DHT22;25453;48.162;14.510;2023-07-13T04:26:10;22.40;79.10
39777;DHT22;25453;48.162;14.510;2023-07-13T04:28:38;22.40;79.10
39777;DHT22;25453;48.162;14.510;2023-07-13T04:31:05;22.40;79.20
39777;DHT22;25453;48.162;14.510;2023-07-13T04:33:33;22.50;79.20
39777;DHT22;25453;48.162;14.510;2023-07-13T04:36:00;22.50;79.20
39777;DHT22;25453;48.162;14.510;2023-07-13T04:38:30;22.50;79.20
39777;DHT22;25453;48.162;14.510;2023-07-13T04:41:00;22.50;79.00
39777;DHT22;25453;48.162;14.510;2023-07-13T04:43:28;22.50;79.10
39777;DHT22;25453;48.162;14.510;2023-07-13T04:45:56;22.50;79.10
39777;DHT22;25453;48.162;14.510;2023-07-13T04:48:24;22.50;79.30
39777;DHT22;25453;48.162;14.510;2023-07-13T04:50:56;22.50;79.40
39777;DHT22;25453;48.162;14.510;2023-07-13T04:53:25;22.50;79.10
39777;DHT22;25453;48.162;14.510;2023-07-13T04:55:53;22.50;79.10
39777;DHT22;25453;48.162;14.510;2023-07-13T04:58:22;22.50;79.10
39777;DHT22;25453;48.162;14.510;2023-07-13T05:00:50;22.40;79.10
39777;DHT22;25453;48.162;14.510;2023-07-13T05:03:17;22.40;79.30
39777;DHT22;25453;48.162;14.510;2023-07-13T05:05:58;22.40;79.30
39777;DHT22;25453;48.162;14.510;2023-07-13T05:08:26;22.50;79.30
39777;DHT22;25453;48.162;14.510;2023-07-13T05:10:53;22.50;79.20
39777;DHT22;25453;48.162;14.510;2023-07-13T05:13:21;22.50;79.20
39777;DHT22;25453;48.162;14.510;2023-07-13T05:16:00;22.50;79.30
39777;DHT22;25453;48.162;14.510;2023-07-13T05:18:29;22.50;79.30
39777;DHT22;25453;48.162;14.510;2023-07-13T05:21:00;22.50;79.30
39777;DHT22;25453;48.162;14.510;2023-07-13T05:23:28;22.50;79.40
39777;DHT22;25453;48.162;14.510;2023-07-13T05:25:56;22.60;79.40
39777;DHT22;25453;48.162;14.510;2023-07-13T05:28:23;22.60;79.30
39777;DHT22;25453;48.162;14.510;2023-07-13T05:30:50;22.60;79.40
39777;DHT22;25453;48.162;14.510;2023-07-13T05:33:18;22.60;79.40
39777;DHT22;25453;48.162;14.510;2023-07-13T05:35:46;22.70;79.40
39777;DHT22;25453;48.162;14.510;2023-07-13T05:38:13;22.70;79.10
39777;DHT22;25453;48.162;14.510;2023-07-13T05:40:45;22.60;79.00
39777;DHT22;25453;48.162;14.510;2023-07-13T05:43:13;22.60;79.00
39777;DHT22;25453;48.162;14.510;2023-07-13T05:45:41;22.60;79.00
39777;DHT22;25453;48.162;14.510;2023-07-13T05:48:08;22.50;78.80
39777;DHT22;25453;48.162;14.510;2023-07-13T05:50:35;22.50;78.80
39777;DHT22;25453;48.162;14.510;2023-07-13T05:53:02;22.40;79.00
39777;DHT22;25453;48.162;14.510;2023-07-13T05:55:29;22.40;79.20
39777;DHT22;25453;48.162;14.510;2023-07-13T05:57:57;22.40;79.30
39777;DHT22;25453;48.162;14.510;2023-07-13T06:00:25;22.50;79.30
39777;DHT22;25453;48.162;14.510;2023-07-13T06:02:53;22.50;79.10
39777;DHT22;25453;48.162;14.510;2023-07-13T06:05:20;22.60;79.10
39777;DHT22;25453;48.162;14.510;2023-07-13T06:07:47;22.60;79.10
39777;DHT22;25453;48.162;14.510;2023-07-13T06:10:14;22.60;79.20
39777;DHT22;25453;48.162;14.510;2023-07-13T06:12:41;22.70;79.20
39777;DHT22;25453;48.162;14.510;2023-07-13T06:15:09;22.70;79.10
39777;DHT22;25453;48.162;14.510;2023-07-13T06:17:36;22.70;79.10
39777;DHT22;25453;48.162;14.510;2023-07-13T06:20:03;22.70;78.90
39777;DHT22;25453;48.162;14.510;2023-07-13T06:22:31;22.70;78.90
39777;DHT22;25453;48.162;14.510;2023-07-13T06:24:58;22.70;78.90
39777;DHT22;25453;48.162;14.510;2023-07-13T06:27:25;22.70;78.80
39777;DHT22;25453;48.162;14.510;2023-07-13T06:29:55;22.70;78.80
39777;DHT22;25453;48.162;14.510;2023-07-13T06:32:22;22.70;78.90
39777;DHT22;25453;48.162;14.510;2023-07-13T06:34:50;22.70;79.00
39777;DHT22;25453;48.162;14.510;2023-07-13T06:37:19;22.70;78.90
39777;DHT22;25453;48.162;14.510;2023-07-13T06:39:46;22.70;78.90
39777;DHT22;25453;48.162;14.510;2023-07-13T06:42:13;22.70;78.90
39777;DHT22;25453;48.162;14.510;2023-07-13T06:44:41;22.70;78.90
39777;DHT22;25453;48.162;14.510;2023-07-13T06:47:08;22.70;79.00
39777;DHT22;25453;48.162;14.510;2023-07-13T06:49:35;22.70;79.00
39777;DHT22;25453;48.162;14.510;2023-07-13T06:52:02;22.80;79.00
39777;DHT22;25453;48.162;14.510;2023-07-13T06:54:29;22.80;78.90
39777;DHT22;25453;48.162;14.510;2023-07-13T06:56:56;22.80;78.90
39777;DHT22;25453;48.162;14.510;2023-07-13T06:59:23;22.80;78.70
39777;DHT22;25453;48.162;14.510;2023-07-13T07:01:50;22.80;78.90
39777;DHT22;25453;48.162;14.510;2023-07-13T07:04:17;22.80;78.90
39777;DHT22;25453;48.162;14.510;2023-07-13T07:06:44;22.90;78.90
39777;DHT22;25453;48.162;14.510;2023-07-13T07:09:14;22.90;79.00
39777;DHT22;25453;48.162;14.510;2023-07-13T07:11:43;22.90;78.90
39777;DHT22;25453;48.162;14.510;2023-07-13T07:14:29;22.90;78.90
39777;DHT22;25453;48.162;14.510;2023-07-13T07:16:56;23.00;78.60
39777;DHT22;25453;48.162;14.510;2023-07-13T07:19:27;23.00;78.60
39777;DHT22;25453;48.162;14.510;2023-07-13T07:21:54;23.00;78.50
39777;DHT22;25453;48.162;14.510;2023-07-13T07:24:21;23.00;78.50
39777;DHT22;25453;48.162;14.510;2023-07-13T07:26:49;23.00;78.30
39777;DHT22;25453;48.162;14.510;2023-07-13T07:29:19;23.00;78.50
39777;DHT22;25453;48.162;14.510;2023-07-13T07:31:49;23.00;78.30
39777;DHT22;25453;48.162;14.510;2023-07-13T07:34:32;23.00;78.30
39777;DHT22;25453;48.162;14.510;2023-07-13T07:37:00;23.10;78.50
39777;DHT22;25453;48.162;14.510;2023-07-13T07:39:32;23.10;78.60
39777;DHT22;25453;48.162;14.510;2023-07-13T07:42:00;23.20;78.30
39777;DHT22;25453;48.162;14.510;2023-07-13T07:44:27;23.20;78.20
39777;DHT22;25453;48.162;14.510;2023-07-13T07:46:55;23.20;77.90
39777;DHT22;25453;48.162;14.510;2023-07-13T07:49:22;23.20;77.60
39777;DHT22;25453;48.162;14.510;2023-07-13T07:51:49;23.20;77.80
39777;DHT22;25453;48.162;14.510;2023-07-13T07:54:17;23.20;77.90
39777;DHT22;25453;48.162;14.510;2023-07-13T07:57:04;23.30;78.00
39777;DHT22;25453;48.162;14.510;2023-07-13T07:59:34;23.40;77.60
39777;DHT22;25453;48.162;14.510;2023-07-13T08:02:06;23.40;77.50
39777;DHT22;25453;48.162;14.510;2023-07-13T08:04:53;23.40;77.30
39777;DHT22;25453;48.162;14.510;2023-07-13T08:07:26;23.40;77.30
39777;DHT22;25453;48.162;14.510;2023-07-13T08:09:53;23.50;77.40
39777;DHT22;25453;48.162;14.510;2023-07-13T08:12:21;23.60;77.40
39777;DHT22;25453;48.162;14.510;2023-07-13T08:14:51;23.60;77.20
39777;DHT22;25453;48.162;14.510;2023-07-13T08:17:24;23.70;76.90
39777;DHT22;25453;48.162;14.510;2023-07-13T08:19:53;23.70;76.70
39777;DHT22;25453;48.162;14.510;2023-07-13T08:22:20;23.80;76.70
39777;DHT22;25453;48.162;14.510;2023-07-13T08:24:47;23.80;76.50
39777;DHT22;25453;48.162;14.510;2023-07-13T08:27:25;23.80;76.20
39777;DHT22;25453;48.162;14.510;2023-07-13T08:29:53;23.80;76.00
39777;DHT22;25453;48.162;14.510;2023-07-13T08:32:24;23.80;75.80
39777;DHT22;25453;48.162;14.510;2023-07-13T08:34:55;23.70;75.60
39777;DHT22;25453;48.162;14.510;2023-07-13T08:37:22;23.70;75.60
39777;DHT22;25453;48.162;14.510;2023-07-13T08:39:50;23.60;75.50
39777;DHT22;25453;48.162;14.510;2023-07-13T08:42:27;23.50;75.60
39777;DHT22;25453;48.162;14.510;2023-07-13T08:47:35;23.50;75.90
39777;DHT22;25453;48.162;14.510;2023-07-13T08:50:05;23.50;75.90
39777;DHT22;25453;48.162;14.510;2023-07-13T08:52:38;23.50;75.90
39777;DHT22;25453;48.162;14.510;2023-07-13T08:55:13;23.60;76.00
39777;DHT22;25453;48.162;14.510;2023-07-13T08:57:43;23.60;75.90
39777;DHT22;25453;48.162;14.510;2023-07-13T09:00:12;23.70;75.80
39777;DHT22;25453;48.162;14.510;2023-07-13T09:02:52;23.70;75.70
39777;DHT22;25453;48.162;14.510;2023-07-13T09:05:36;23.80;75.70
39777;DHT22;25453;48.162;14.510;2023-07-13T09:13:44;23.90;75.10
39777;DHT22;25453;48.162;14.510;2023-07-13T09:16:18;23.90;74.90
39777;DHT22;25453;48.162;14.510;2023-07-13T09:18:48;23.90;74.80
39777;DHT22;25453;48.162;14.510;2023-07-13T09:24:06;23.90;74.90
39777;DHT22;25453;48.162;14.510;2023-07-13T09:26:42;23.90;74.90
39777;DHT22;25453;48.162;14.510;2023-07-13T09:29:17;23.90;74.90
39777;DHT22;25453;48.162;14.510;2023-07-13T09:31:50;24.00;74.90
39777;DHT22;25453;48.162;14.510;2023-07-13T09:34:20;24.00;74.90
39777;DHT22;25453;48.162;14.510;2023-07-13T09:36:47;24.00;74.80
39777;DHT22;25453;48.162;14.510;2023-07-13T09:42:07;24.00;74.60
39777;DHT22;25453;48.162;14.510;2023-07-13T09:45:00;24.00;74.30
39777;DHT22;25453;48.162;14.510;2023-07-13T09:47:32;23.90;73.70
39777;DHT22;25453;48.162;14.510;2023-07-13T09:50:02;23.90;74.00
39777;DHT22;25453;48.162;14.510;2023-07-13T09:53:00;23.80;74.10
39777;DHT22;25453;48.162;14.510;2023-07-13T09:55:42;23.80;74.10
39777;DHT22;25453;48.162;14.510;2023-07-13T09:58:16;23.80;74.10
39777;DHT22;25453;48.162;14.510;2023-07-13T10:00:53;23.90;74.30
39777;DHT22;25453;48.162;14.510;2023-07-13T10:03:25;23.90;74.10
39777;DHT22;25453;48.162;14.510;2023-07-13T10:05:53;24.00;73.80
39777;DHT22;25453;48.162;14.510;2023-07-13T10:08:25;23.90;73.60
39777;DHT22;25453;48.162;14.510;2023-07-13T10:13:40;24.00;73.30
39777;DHT22;25453;48.162;14.510;2023-07-13T10:16:09;24.00;73.30
39777;DHT22;25453;48.162;14.510;2023-07-13T10:18:47;24.00;73.20
39777;DHT22;25453;48.162;14.510;2023-07-13T10:21:18;24.00;73.10
39777;DHT22;25453;48.162;14.510;2023-07-13T10:24:22;24.10;72.90
39777;DHT22;25453;48.162;14.510;2023-07-13T10:27:12;24.10;72.80
39777;DHT22;25453;48.162;14.510;2023-07-13T10:32:27;24.20;72.60
39777;DHT22;25453;48.162;14.510;2023-07-13T10:34:54;24.20;72.40
39777;DHT22;25453;48.162;14.510;2023-07-13T10:37:26;24.20;72.40
39777;DHT22;25453;48.162;14.510;2023-07-13T10:39:56;24.30;72.40
39777;DHT22;25453;48.162;14.510;2023-07-13T10:42:45;24.30;72.20
39777;DHT22;25453;48.162;14.510;2023-07-13T10:45:16;24.30;72.00
39777;DHT22;25453;48.162;14.510;2023-07-13T10:47:47;24.30;71.80
39777;DHT22;25453;48.162;14.510;2023-07-13T10:50:25;24.30;71.50
39777;DHT22;25453;48.162;14.510;2023-07-13T10:52:55;24.30;71.40
39777;DHT22;25453;48.162;14.510;2023-07-13T10:58:21;24.20;71.30
39777;DHT22;25453;48.162;14.510;2023-07-13T11:03:54;24.20;71.30
39777;DHT22;25453;48.162;14.510;2023-07-13T11:09:07;24.20;70.90
39777;DHT22;25453;48.162;14.510;2023-07-13T11:11:44;24.10;70.80
39777;DHT22;25453;48.162;14.510;2023-07-13T11:16:56;24.10;70.80
39777;DHT22;25453;48.162;14.510;2023-07-13T11:19:37;24.00;70.40
39777;DHT22;25453;48.162;14.510;2023-07-13T11:24:48;23.90;70.40
39777;DHT22;25453;48.162;14.510;2023-07-13T11:27:38;23.90;70.60
39777;DHT22;25453;48.162;14.510;2023-07-13T11:30:24;23.90;70.50
39777;DHT22;25453;48.162;14.510;2023-07-13T11:33:14;23.90;70.50
39777;DHT22;25453;48.162;14.510;2023-07-13T11:38:39;24.00;70.30
39777;DHT22;25453;48.162;14.510;2023-07-13T11:44:16;24.00;70.00
39777;DHT22;25453;48.162;14.510;2023-07-13T11:46:52;24.00;70.00
39777;DHT22;25453;48.162;14.510;2023-07-13T11:49:25;24.10;69.90
39777;DHT22;25453;48.162;14.510;2023-07-13T11:52:00;24.10;69.80
39777;DHT22;25453;48.162;14.510;2023-07-13T11:54:32;24.10;69.80
39777;DHT22;25453;48.162;14.510;2023-07-13T11:57:06;24.10;70.20
39777;DHT22;25453;48.162;14.510;2023-07-13T11:59:39;24.30;69.70
39777;DHT22;25453;48.162;14.510;2023-07-13T12:02:33;24.50;69.90
39777;DHT22;25453;48.162;14.510;2023-07-13T12:05:02;24.70;69.40
39777;DHT22;25453;48.162;14.510;2023-07-13T12:07:32;25.00;68.50
39777;DHT22;25453;48.162;14.510;2023-07-13T12:12:36;25.30;66.30
39777;DHT22;25453;48.162;14.510;2023-07-13T12:15:08;25.40;65.40
39777;DHT22;25453;48.162;14.510;2023-07-13T12:17:36;25.50;65.20
39777;DHT22;25453;48.162;14.510;2023-07-13T12:22:47;25.80;64.00
39777;DHT22;25453;48.162;14.510;2023-07-13T12:25:15;25.90;62.50
39777;DHT22;25453;48.162;14.510;2023-07-13T12:27:48;25.90;61.80
39777;DHT22;25453;48.162;14.510;2023-07-13T12:30:28;25.90;60.80
39777;DHT22;25453;48.162;14.510;2023-07-13T12:33:06;25.70;61.00
39777;DHT22;25453;48.162;14.510;2023-07-13T12:35:50;25.70;61.30
39777;DHT22;25453;48.162;14.510;2023-07-13T12:38:19;25.60;61.30
39777;DHT22;25453;48.162;14.510;2023-07-13T12:40:53;25.50;61.10
39777;DHT22;25453;48.162;14.510;2023-07-13T12:43:22;25.40;61.00
39777;DHT22;25453;48.162;14.510;2023-07-13T12:46:02;25.30;61.00
39777;DHT22;25453;48.162;14.510;2023-07-13T12:48:37;25.10;61.40
39777;DHT22;25453;48.162;14.510;2023-07-13T12:51:16;25.00;61.60
39777;DHT22;25453;48.162;14.510;2023-07-13T12:53:55;24.90;61.70
39777;DHT22;25453;48.162;14.510;2023-07-13T12:56:25;24.90;61.80
39777;DHT22;25453;48.162;14.510;2023-07-13T12:58:58;24.70;61.80
39777;DHT22;25453;48.162;14.510;2023-07-13T13:01:28;24.70;62.00
39777;DHT22;25453;48.162;14.510;2023-07-13T13:03:56;24.60;62.10
39777;DHT22;25453;48.162;14.510;2023-07-13T13:06:26;24.60;62.10
39777;DHT22;25453;48.162;14.510;2023-07-13T13:08:58;24.60;62.20
39777;DHT22;25453;48.162;14.510;2023-07-13T13:11:28;24.70;62.10
39777;DHT22;25453;48.162;14.510;2023-07-13T13:13:56;24.80;61.90
39777;DHT22;25453;48.162;14.510;2023-07-13T13:18:55;25.30;61.40
39777;DHT22;25453;48.162;14.510;2023-07-13T13:21:26;25.40;60.80
39777;DHT22;25453;48.162;14.510;2023-07-13T13:23:53;25.60;60.20
39777;DHT22;25453;48.162;14.510;2023-07-13T13:26:22;25.60;59.90
39777;DHT22;25453;48.162;14.510;2023-07-13T13:28:49;25.60;59.60
39777;DHT22;25453;48.162;14.510;2023-07-13T13:31:16;25.60;59.50
39777;DHT22;25453;48.162;14.510;2023-07-13T13:33:45;25.50;59.40
39777;DHT22;25453;48.162;14.510;2023-07-13T13:36:18;25.40;59.40
39777;DHT22;25453;48.162;14.510;2023-07-13T13:38:47;25.40;59.70
39777;DHT22;25453;48.162;14.510;2023-07-13T13:41:16;25.30;59.40
39777;DHT22;25453;48.162;14.510;2023-07-13T13:43:43;25.10;59.20
39777;DHT22;25453;48.162;14.510;2023-07-13T13:46:18;25.00;59.60
39777;DHT22;25453;48.162;14.510;2023-07-13T13:48:46;24.80;59.70
39777;DHT22;25453;48.162;14.510;2023-07-13T13:51:16;24.70;60.20
39777;DHT22;25453;48.162;14.510;2023-07-13T13:53:45;24.60;60.30
39777;DHT22;25453;48.162;14.510;2023-07-13T13:56:13;24.50;60.60
39777;DHT22;25453;48.162;14.510;2023-07-13T13:58:41;24.50;60.90
39777;DHT22;25453;48.162;14.510;2023-07-13T14:01:35;24.40;61.20
39777;DHT22;25453;48.162;14.510;2023-07-13T14:04:03;24.40;61.30
39777;DHT22;25453;48.162;14.510;2023-07-13T14:06:30;24.30;61.50
39777;DHT22;25453;48.162;14.510;2023-07-13T14:08:58;24.30;61.70
39777;DHT22;25453;48.162;14.510;2023-07-13T14:11:26;24.30;61.80
39777;DHT22;25453;48.162;14.510;2023-07-13T14:13:57;24.20;61.90
39777;DHT22;25453;48.162;14.510;2023-07-13T14:16:33;24.20;61.90
39777;DHT22;25453;48.162;14.510;2023-07-13T14:19:01;24.20;62.00
39777;DHT22;25453;48.162;14.510;2023-07-13T14:21:29;24.20;62.10
39777;DHT22;25453;48.162;14.510;2023-07-13T14:23:56;24.20;62.30
39777;DHT22;25453;48.162;14.510;2023-07-13T14:26:25;24.20;62.30
39777;DHT22;25453;48.162;14.510;2023-07-13T14:28:56;24.20;62.40
39777;DHT22;25453;48.162;14.510;2023-07-13T14:31:26;24.30;62.60
39777;DHT22;25453;48.162;14.510;2023-07-13T14:33:57;24.40;62.60
39777;DHT22;25453;48.162;14.510;2023-07-13T14:38:52;24.90;62.50
39777;DHT22;25453;48.162;14.510;2023-07-13T14:41:19;25.20;62.00
39777;DHT22;25453;48.162;14.510;2023-07-13T14:43:48;25.40;61.40
39777;DHT22;25453;48.162;14.510;2023-07-13T14:46:32;25.70;61.00
39777;DHT22;25453;48.162;14.510;2023-07-13T14:49:24;25.80;60.10
39777;DHT22;25453;48.162;14.510;2023-07-13T14:51:55;25.90;59.20
39777;DHT22;25453;48.162;14.510;2023-07-13T14:54:24;25.90;59.00
39777;DHT22;25453;48.162;14.510;2023-07-13T14:56:51;25.80;59.00
39777;DHT22;25453;48.162;14.510;2023-07-13T14:59:19;25.70;59.10
39777;DHT22;25453;48.162;14.510;2023-07-13T15:01:47;25.80;58.90
39777;DHT22;25453;48.162;14.510;2023-07-13T15:04:16;25.80;58.70
39777;DHT22;25453;48.162;14.510;2023-07-13T15:07:00;25.80;58.60
39777;DHT22;25453;48.162;14.510;2023-07-13T15:09:28;25.80;58.50
39777;DHT22;25453;48.162;14.510;2023-07-13T15:11:57;25.80;58.30
39777;DHT22;25453;48.162;14.510;2023-07-13T15:14:25;25.90;58.30
39777;DHT22;25453;48.162;14.510;2023-07-13T15:16:55;26.00;58.20
39777;DHT22;25453;48.162;14.510;2023-07-13T15:19:23;26.10;58.00
39777;DHT22;25453;48.162;14.510;2023-07-13T15:21:51;26.20;57.60
39777;DHT22;25453;48.162;14.510;2023-07-13T15:24:19;26.20;57.50
39777;DHT22;25453;48.162;14.510;2023-07-13T15:26:47;26.20;57.40
39777;DHT22;25453;48.162;14.510;2023-07-13T15:29:16;26.20;57.30
39777;DHT22;25453;48.162;14.510;2023-07-13T15:31:44;26.20;57.30
39777;DHT22;25453;48.162;14.510;2023-07-13T15:34:18;26.20;57.30
39777;DHT22;25453;48.162;14.510;2023-07-13T15:36:47;26.20;57.10
39777;DHT22;25453;48.162;14.510;2023-07-13T15:39:16;26.20;56.80
39777;DHT22;25453;48.162;14.510;2023-07-13T15:41:44;26.20;56.70
39777;DHT22;25453;48.162;14.510;2023-07-13T15:44:23;26.20;56.70
39777;DHT22;25453;48.162;14.510;2023-07-13T15:46:51;26.20;56.50
39777;DHT22;25453;48.162;14.510;2023-07-13T15:49:19;26.20;56.30
39777;DHT22;25453;48.162;14.510;2023-07-13T15:51:47;26.20;56.20
39777;DHT22;25453;48.162;14.510;2023-07-13T15:54:17;26.20;55.80
39777;DHT22;25453;48.162;14.510;2023-07-13T15:56:52;26.10;55.50
39777;DHT22;25453;48.162;14.510;2023-07-13T15:59:20;26.00;55.30
39777;DHT22;25453;48.162;14.510;2023-07-13T16:01:47;26.00;54.70
39777;DHT22;25453;48.162;14.510;2023-07-13T16:04:16;25.90;54.40
39777;DHT22;25453;48.162;14.510;2023-07-13T16:06:47;25.90;54.20
39777;DHT22;25453;48.162;14.510;2023-07-13T16:09:22;25.90;54.20
39777;DHT22;25453;48.162;14.510;2023-07-13T16:11:50;25.80;54.30
39777;DHT22;25453;48.162;14.510;2023-07-13T16:14:18;25.80;54.40
39777;DHT22;25453;48.162;14.510;2023-07-13T16:16:47;25.70;54.40
39777;DHT22;25453;48.162;14.510;2023-07-13T16:19:15;25.70;54.40
39777;DHT22;25453;48.162;14.510;2023-07-13T16:21:46;25.60;54.60
39777;DHT22;25453;48.162;14.510;2023-07-13T16:24:20;25.50;54.80
39777;DHT22;25453;48.162;14.510;2023-07-13T16:26:49;25.50;55.00
39777;DHT22;25453;48.162;14.510;2023-07-13T16:29:17;25.40;55.10